createdAt,value
2017-02-28T00:00:43.818Z,48.85
2017-02-28T00:01:29.369Z,49.26
2017-02-28T00:02:39.449Z,49.11
2017-02-28T00:03:29.663Z,49.67
2017-02-28T00:04:29.759Z,49.11
2017-02-28T00:05:33.133Z,48.63
2017-02-28T00:06:38.614Z,49.49
2017-02-28T00:08:28.757Z,48.82
2017-02-28T00:09:34.624Z,48.73
2017-02-28T00:13:38.013Z,48.87
2017-02-28T00:15:44.743Z,48.62
2017-02-28T00:16:28.864Z,49.04
2017-02-28T00:17:45.746Z,49.18
2017-02-28T00:18:28.950Z,48.31
2017-02-28T00:19:32.629Z,48.28
2017-02-28T00:20:28.882Z,48.67
2017-02-28T00:21:33.179Z,48.18
2017-02-28T00:22:28.499Z,48.10
2017-02-28T00:23:33.563Z,48.53
2017-02-28T00:24:33.998Z,48.42
2017-02-28T00:25:39.231Z,48.16
2017-02-28T00:26:29.037Z,48.20
2017-02-28T00:27:38.453Z,48.34
2017-02-28T00:28:33.747Z,47.63
2017-02-28T00:29:34.046Z,48.03
2017-02-28T00:30:33.759Z,47.91
2017-02-28T00:31:27.477Z,48.50
2017-02-28T00:32:29.105Z,48.10
2017-02-28T00:33:43.727Z,48.37
2017-02-28T00:34:33.732Z,48.38
2017-02-28T00:35:37.771Z,47.95
2017-02-28T00:36:38.703Z,48.70
2017-02-28T00:37:28.943Z,48.92
2017-02-28T00:38:28.984Z,48.24
2017-02-28T00:39:45.769Z,48.16
2017-02-28T00:40:26.941Z,48.53
2017-02-28T00:41:38.758Z,48.02
2017-02-28T00:42:33.181Z,47.88
2017-02-28T00:43:29.831Z,48.00
2017-02-28T00:44:33.589Z,47.94
2017-02-28T00:45:33.616Z,49.01
2017-02-28T00:46:27.619Z,48.29
2017-02-28T00:47:33.772Z,47.96
2017-02-28T00:48:33.213Z,48.74
2017-02-28T00:49:38.372Z,48.23
2017-02-28T00:50:44.823Z,47.86
2017-02-28T00:51:33.825Z,47.76
2017-02-28T00:52:33.759Z,47.91
2017-02-28T00:53:38.362Z,48.08
2017-02-28T00:54:32.932Z,48.39
2017-02-28T00:55:27.634Z,49.24
2017-02-28T00:56:38.765Z,48.40
2017-02-28T00:57:29.924Z,48.65
2017-02-28T00:58:27.901Z,48.12
2017-02-28T00:59:38.772Z,48.77
2017-02-28T01:00:43.251Z,48.50
2017-02-28T01:01:43.765Z,48.61
2017-02-28T01:02:28.916Z,49.39
2017-02-28T01:03:45.779Z,48.45
2017-02-28T01:04:33.491Z,48.57
2017-02-28T01:05:33.830Z,49.31
2017-02-28T01:06:33.182Z,49.03
2017-02-28T01:07:22.554Z,49.81
2017-02-28T01:08:38.787Z,49.48
2017-02-28T01:09:44.284Z,49.10
2017-02-28T01:10:30.416Z,49.70
2017-02-28T01:11:39.118Z,49.62
2017-02-28T01:12:32.969Z,49.37
2017-02-28T01:13:28.093Z,49.16
2017-02-28T01:14:28.207Z,49.44
2017-02-28T01:15:28.320Z,49.94
2017-02-28T01:16:28.475Z,49.99
2017-02-28T01:17:32.406Z,50.21
2017-02-28T01:18:22.728Z,49.54
2017-02-28T01:19:33.542Z,49.14
2017-02-28T01:20:38.515Z,49.27
2017-02-28T01:21:35.024Z,49.42
2017-02-28T01:22:28.115Z,49.30
2017-02-28T01:23:34.798Z,49.15
2017-02-28T01:24:25.422Z,50.16
2017-02-28T01:25:33.549Z,50.98
2017-02-28T01:26:33.547Z,51.35
2017-02-28T01:27:29.923Z,51.31
2017-02-28T01:28:29.065Z,50.44
2017-02-28T01:29:26.972Z,50.38
2017-02-28T01:30:28.048Z,50.95
2017-02-28T01:31:29.701Z,50.32
2017-02-28T01:32:29.847Z,49.40
2017-02-28T01:33:28.166Z,50.05
2017-02-28T01:34:42.241Z,49.54
2017-02-28T01:35:33.344Z,49.64
2017-02-28T01:36:28.513Z,49.13
2017-02-28T01:37:28.616Z,49.99
2017-02-28T01:38:33.301Z,49.42
2017-02-28T01:39:28.613Z,49.85
2017-02-28T01:40:28.139Z,50.68
2017-02-28T01:41:33.994Z,50.66
2017-02-28T01:42:29.115Z,50.47
2017-02-28T01:43:29.933Z,50.52
2017-02-28T01:44:29.553Z,49.85
2017-02-28T01:45:28.328Z,51.71
2017-02-28T01:46:28.170Z,49.92
2017-02-28T01:47:43.860Z,50.99
2017-02-28T01:48:38.761Z,49.87
2017-02-28T01:49:33.235Z,50.29
2017-02-28T01:50:28.474Z,49.68
2017-02-28T01:51:28.261Z,49.61
2017-02-28T01:52:29.848Z,50.17
2017-02-28T01:53:33.310Z,50.31
2017-02-28T01:54:28.345Z,50.71
2017-02-28T01:55:33.430Z,50.47
2017-02-28T01:56:24.668Z,50.00
2017-02-28T01:57:33.765Z,51.24
2017-02-28T01:58:31.585Z,51.94
2017-02-28T01:59:28.155Z,52.27
2017-02-28T02:00:29.255Z,51.65
2017-02-28T02:01:33.539Z,50.61
2017-02-28T02:02:23.158Z,51.57
2017-02-28T02:03:27.855Z,51.98
2017-02-28T02:04:24.165Z,51.59
2017-02-28T02:05:28.230Z,51.19
2017-02-28T02:06:22.868Z,53.14
2017-02-28T02:07:25.507Z,51.75
2017-02-28T02:08:34.770Z,51.28
2017-02-28T02:09:33.860Z,51.31
2017-02-28T02:10:29.091Z,50.53
2017-02-28T02:11:33.586Z,51.96
2017-02-28T02:12:25.211Z,50.57
2017-02-28T02:13:30.021Z,49.14
2017-02-28T02:14:28.361Z,50.09
2017-02-28T02:15:23.148Z,49.52
2017-02-28T02:16:33.566Z,50.01
2017-02-28T02:17:29.038Z,50.21
2017-02-28T02:18:25.842Z,49.84
2017-02-28T02:19:28.987Z,49.48
2017-02-28T02:20:28.160Z,51.75
2017-02-28T02:21:28.968Z,49.88
2017-02-28T02:22:33.063Z,48.97
2017-02-28T02:23:28.409Z,48.37
2017-02-28T02:24:33.487Z,49.38
2017-02-28T02:25:28.906Z,49.03
2017-02-28T02:26:28.350Z,48.35
2017-02-28T02:27:28.697Z,48.10
2017-02-28T02:28:33.660Z,48.63
2017-02-28T02:29:33.338Z,48.78
2017-02-28T02:30:33.241Z,49.23
2017-02-28T02:31:23.397Z,48.63
2017-02-28T02:32:28.394Z,49.97
2017-02-28T02:33:33.413Z,49.11
2017-02-28T02:34:28.433Z,48.83
2017-02-28T02:35:29.554Z,48.29
2017-02-28T02:36:28.511Z,50.04
2017-02-28T02:37:28.150Z,48.66
2017-02-28T02:38:28.868Z,48.32
2017-02-28T02:39:38.098Z,48.35
2017-02-28T02:40:37.229Z,48.49
2017-02-28T02:41:39.369Z,48.02
2017-02-28T02:42:22.929Z,48.68
2017-02-28T02:43:29.018Z,49.92
2017-02-28T02:44:27.642Z,49.39
2017-02-28T02:45:37.656Z,50.74
2017-02-28T02:46:33.676Z,50.36
2017-02-28T02:47:28.151Z,48.85
2017-02-28T02:48:29.076Z,50.47
2017-02-28T02:49:28.198Z,50.08
2017-02-28T02:50:28.317Z,49.38
2017-02-28T02:51:28.518Z,49.67
2017-02-28T02:52:29.871Z,49.00
2017-02-28T02:53:28.985Z,49.38
2017-02-28T02:54:30.378Z,49.71
2017-02-28T02:55:24.407Z,49.68
2017-02-28T02:56:29.849Z,49.16
2017-02-28T02:57:23.872Z,49.58
2017-02-28T02:58:33.492Z,49.98
2017-02-28T02:59:28.764Z,49.64
2017-02-28T03:00:28.394Z,49.45
2017-02-28T03:01:28.437Z,49.28
2017-02-28T03:02:43.602Z,49.22
2017-02-28T03:03:33.361Z,49.59
2017-02-28T03:04:28.489Z,49.44
2017-02-28T03:05:28.797Z,49.14
2017-02-28T03:06:29.848Z,49.34
2017-02-28T03:07:34.256Z,49.19
2017-02-28T03:08:25.544Z,49.52
2017-02-28T03:09:38.606Z,49.35
2017-02-28T03:10:28.735Z,49.25
2017-02-28T03:11:28.866Z,49.47
2017-02-28T03:12:28.561Z,48.79
2017-02-28T03:13:28.624Z,48.66
2017-02-28T03:14:29.743Z,49.78
2017-02-28T03:15:28.518Z,49.94
2017-02-28T03:16:28.640Z,49.42
2017-02-28T03:17:33.109Z,50.54
2017-02-28T03:18:28.231Z,50.06
2017-02-28T03:19:29.185Z,50.61
2017-02-28T03:20:33.311Z,49.74
2017-02-28T03:21:29.877Z,50.94
2017-02-28T03:22:29.052Z,49.96
2017-02-28T03:23:28.930Z,49.48
2017-02-28T03:24:34.093Z,49.33
2017-02-28T03:25:24.056Z,50.26
2017-02-28T03:26:24.160Z,50.92
2017-02-28T03:27:29.305Z,49.02
2017-02-28T03:28:27.602Z,49.42
2017-02-28T03:29:28.806Z,49.89
2017-02-28T03:30:28.519Z,50.37
2017-02-28T03:31:24.991Z,49.52
2017-02-28T03:32:29.676Z,49.49
2017-02-28T03:33:57.029Z,50.74
2017-02-28T03:34:24.384Z,50.14
2017-02-28T03:35:28.282Z,49.86
2017-02-28T03:36:28.320Z,49.82
2017-02-28T03:37:28.192Z,49.94
2017-02-28T03:38:29.990Z,50.84
2017-02-28T03:39:25.461Z,51.27
2017-02-28T03:40:26.185Z,50.51
2017-02-28T03:41:33.675Z,52.40
2017-02-28T03:42:23.081Z,52.57
2017-02-28T03:43:28.856Z,50.68
2017-02-28T03:44:28.436Z,51.65
2017-02-28T03:45:28.644Z,51.61
2017-02-28T03:46:24.042Z,51.65
2017-02-28T03:47:25.908Z,50.73
2017-02-28T03:48:43.436Z,50.52
2017-02-28T03:49:28.538Z,50.39
2017-02-28T03:50:28.195Z,51.43
2017-02-28T03:51:38.372Z,53.88
2017-02-28T03:52:27.973Z,53.93
2017-02-28T03:53:29.008Z,52.82
2017-02-28T03:54:38.635Z,51.72
2017-02-28T03:55:25.788Z,52.14
2017-02-28T03:56:25.872Z,52.29
2017-02-28T03:57:29.690Z,52.15
2017-02-28T03:58:38.176Z,52.93
2017-02-28T03:59:28.737Z,53.29
2017-02-28T04:00:28.265Z,53.55
2017-02-28T04:01:25.599Z,53.47
2017-02-28T04:02:39.575Z,52.99
2017-02-28T04:03:28.736Z,53.35
2017-02-28T04:04:24.573Z,53.27
2017-02-28T04:05:29.694Z,53.26
2017-02-28T04:06:28.903Z,53.27
2017-02-28T04:07:32.953Z,52.54
2017-02-28T04:08:34.184Z,54.41
2017-02-28T04:09:28.305Z,52.80
2017-02-28T04:10:39.592Z,53.65
2017-02-28T04:11:28.686Z,53.41
2017-02-28T04:12:28.821Z,53.47
2017-02-28T04:13:25.184Z,53.08
2017-02-28T04:14:34.172Z,54.27
2017-02-28T04:15:27.810Z,55.54
2017-02-28T04:16:29.397Z,54.78
2017-02-28T04:17:20.568Z,53.77
2017-02-28T04:18:34.595Z,53.69
2017-02-28T04:19:27.986Z,55.15
2017-02-28T04:20:33.105Z,53.54
2017-02-28T04:21:34.787Z,53.74
2017-02-28T04:22:29.963Z,53.34
2017-02-28T04:23:39.376Z,52.96
2017-02-28T04:24:26.465Z,54.31
2017-02-28T04:25:36.055Z,54.30
2017-02-28T04:26:28.068Z,54.48
2017-02-28T04:27:28.205Z,53.63
2017-02-28T04:28:43.671Z,52.82
2017-02-28T04:29:33.792Z,52.84
2017-02-28T04:30:23.431Z,54.72
2017-02-28T04:31:29.470Z,53.42
2017-02-28T04:32:28.699Z,52.81
2017-02-28T04:33:34.629Z,52.25
2017-02-28T04:34:34.295Z,51.86
2017-02-28T04:35:28.480Z,51.87
2017-02-28T04:36:29.153Z,51.47
2017-02-28T04:37:33.871Z,50.95
2017-02-28T04:38:33.773Z,50.98
2017-02-28T04:39:33.086Z,50.70
2017-02-28T04:40:28.704Z,50.51
2017-02-28T04:41:28.494Z,50.40
2017-02-28T04:42:35.451Z,50.20
2017-02-28T04:43:43.972Z,49.87
2017-02-28T04:44:33.401Z,49.69
2017-02-28T04:45:33.411Z,49.51
2017-02-28T04:46:37.713Z,49.20
2017-02-28T04:47:38.703Z,48.94
2017-02-28T04:48:33.233Z,49.81
2017-02-28T04:49:43.655Z,49.90
2017-02-28T04:50:38.473Z,50.08
2017-02-28T04:51:28.218Z,50.56
2017-02-28T04:52:27.935Z,51.64
2017-02-28T04:53:23.243Z,53.01
2017-02-28T04:54:27.439Z,54.22
2017-02-28T04:55:26.176Z,56.37
2017-02-28T04:56:28.294Z,57.95
2017-02-28T04:57:33.388Z,59.15
2017-02-28T04:58:28.643Z,60.95
2017-02-28T04:59:34.037Z,61.43
2017-02-28T05:00:28.059Z,61.57
2017-02-28T05:01:28.297Z,62.80
2017-02-28T05:02:38.443Z,63.97
2017-02-28T05:03:43.715Z,64.57
2017-02-28T05:04:33.684Z,64.79
2017-02-28T05:05:43.721Z,65.66
2017-02-28T05:06:33.635Z,66.55
2017-02-28T05:07:28.303Z,66.93
2017-02-28T05:08:34.801Z,67.51
2017-02-28T05:09:38.688Z,68.07
2017-02-28T05:10:34.250Z,69.14
2017-02-28T05:11:27.427Z,69.57
2017-02-28T05:12:30.423Z,69.01
2017-02-28T05:13:28.793Z,69.83
2017-02-28T05:14:39.025Z,69.23
2017-02-28T05:15:33.207Z,70.22
2017-02-28T05:16:43.721Z,70.32
2017-02-28T05:17:38.175Z,70.86
2017-02-28T05:18:44.055Z,71.44
2017-02-28T05:19:44.137Z,71.50
2017-02-28T05:20:28.468Z,71.33
2017-02-28T05:21:24.806Z,71.64
2017-02-28T05:22:44.400Z,71.81
2017-02-28T05:23:38.382Z,71.82
2017-02-28T05:24:44.255Z,71.50
2017-02-28T05:25:36.796Z,71.35
2017-02-28T05:26:32.716Z,71.53
2017-02-28T05:27:27.905Z,71.38
2017-02-28T05:28:39.241Z,71.61
2017-02-28T05:29:28.836Z,71.65
2017-02-28T05:30:28.987Z,71.28
2017-02-28T05:31:32.877Z,72.30
2017-02-28T05:32:33.977Z,72.26
2017-02-28T05:33:33.721Z,72.22
2017-02-28T05:34:28.552Z,72.60
2017-02-28T05:35:28.037Z,72.37
2017-02-28T05:36:43.465Z,71.99
2017-02-28T05:37:35.354Z,71.57
2017-02-28T05:38:34.466Z,72.23
2017-02-28T05:39:33.813Z,73.04
2017-02-28T05:40:43.715Z,72.80
2017-02-28T05:41:33.590Z,73.40
2017-02-28T05:42:38.084Z,72.82
2017-02-28T05:43:33.020Z,72.61
2017-02-28T05:44:33.998Z,72.37
2017-02-28T05:45:28.983Z,71.84
2017-02-28T05:46:25.404Z,71.98
2017-02-28T05:47:38.713Z,71.82
2017-02-28T05:48:29.634Z,72.37
2017-02-28T05:49:28.799Z,71.69
2017-02-28T05:50:36.056Z,71.92
2017-02-28T05:51:33.715Z,71.84
2017-02-28T05:52:38.714Z,72.50
2017-02-28T05:53:33.591Z,72.05
2017-02-28T05:54:43.090Z,71.82
2017-02-28T05:55:29.861Z,71.93
2017-02-28T05:56:29.439Z,72.33
2017-02-28T05:57:38.289Z,72.11
2017-02-28T05:58:37.283Z,71.94
2017-02-28T05:59:44.495Z,71.86
2017-02-28T06:00:34.566Z,71.60
2017-02-28T06:01:44.703Z,71.24
2017-02-28T06:02:38.671Z,71.59
2017-02-28T06:03:34.863Z,71.52
2017-02-28T06:04:34.363Z,71.17
2017-02-28T06:05:28.174Z,71.06
2017-02-28T06:06:33.455Z,72.30
2017-02-28T06:07:39.190Z,72.21
2017-02-28T06:08:28.167Z,71.98
2017-02-28T06:09:33.415Z,72.32
2017-02-28T06:10:43.321Z,74.37
2017-02-28T06:11:33.991Z,74.50
2017-02-28T06:12:24.661Z,73.32
2017-02-28T06:13:43.817Z,73.35
2017-02-28T06:14:43.705Z,73.21
2017-02-28T06:15:44.259Z,73.10
2017-02-28T06:16:28.656Z,72.93
2017-02-28T06:17:28.100Z,74.01
2017-02-28T06:18:26.821Z,73.73
2017-02-28T06:19:39.489Z,74.03
2017-02-28T06:20:34.533Z,74.18
2017-02-28T06:21:26.292Z,74.43
2017-02-28T06:22:23.174Z,75.05
2017-02-28T06:23:47.122Z,75.24
2017-02-28T06:24:38.714Z,75.13
2017-02-28T06:25:25.030Z,75.43
2017-02-28T06:27:33.636Z,76.64
2017-02-28T06:28:25.568Z,76.24
2017-02-28T06:29:33.895Z,78.00
2017-02-28T06:30:28.626Z,77.49
2017-02-28T06:31:43.715Z,77.12
2017-02-28T06:32:35.845Z,77.81
2017-02-28T06:34:41.897Z,77.80
2017-02-28T06:36:40.875Z,78.13
2017-02-28T06:37:38.610Z,78.44
2017-02-28T06:38:39.944Z,79.53
2017-02-28T06:39:28.426Z,79.68
2017-02-28T06:40:32.894Z,79.78
2017-02-28T06:45:38.748Z,78.74
2017-02-28T06:46:32.747Z,79.61
2017-02-28T06:47:34.667Z,79.55
2017-02-28T06:48:44.920Z,78.38
2017-02-28T06:50:33.625Z,80.05
2017-02-28T06:52:28.728Z,80.03
2017-02-28T06:53:50.056Z,80.70
2017-02-28T06:54:26.858Z,80.79
2017-02-28T06:55:28.271Z,79.85
2017-02-28T06:57:20.750Z,81.58
2017-02-28T06:58:38.905Z,81.68
2017-02-28T06:59:32.939Z,80.37
2017-02-28T07:00:33.546Z,81.06
2017-02-28T07:01:34.890Z,80.84
2017-02-28T07:03:25.152Z,80.82
2017-02-28T07:04:26.719Z,80.27
2017-02-28T07:05:43.486Z,80.16
2017-02-28T07:06:28.678Z,80.38
2017-02-28T07:07:44.925Z,81.33
2017-02-28T07:08:28.517Z,80.48
2017-02-28T07:09:32.600Z,80.52
2017-02-28T07:10:34.177Z,82.58
2017-02-28T07:11:29.165Z,81.60
2017-02-28T07:12:28.929Z,81.53
2017-02-28T07:15:40.503Z,81.70
2017-02-28T07:16:44.233Z,82.29
2017-02-28T07:17:28.265Z,80.56
2017-02-28T07:18:52.443Z,81.07
2017-02-28T07:19:32.625Z,81.32
2017-02-28T07:20:44.316Z,82.27
2017-02-28T07:21:33.495Z,81.49
2017-02-28T07:22:33.949Z,81.80
2017-02-28T07:23:33.362Z,81.12
2017-02-28T07:25:24.668Z,81.80
2017-02-28T07:26:31.008Z,82.03
2017-02-28T07:27:34.206Z,82.78
2017-02-28T07:28:28.312Z,82.73
2017-02-28T07:29:29.826Z,82.59
2017-02-28T07:30:30.031Z,81.11
2017-02-28T07:31:34.166Z,81.32
2017-02-28T07:34:29.125Z,81.24
2017-02-28T07:36:38.733Z,80.66
2017-02-28T07:37:38.805Z,83.40
2017-02-28T07:38:28.775Z,83.52
2017-02-28T07:39:35.185Z,82.27
2017-02-28T07:40:43.728Z,81.85
2017-02-28T07:41:35.638Z,80.96
2017-02-28T07:42:28.701Z,80.12
2017-02-28T07:43:28.748Z,79.10
2017-02-28T07:44:23.417Z,79.96
2017-02-28T07:45:44.162Z,79.78
2017-02-28T07:46:30.837Z,79.17
2017-02-28T07:48:23.155Z,79.50
2017-02-28T07:48:34.469Z,80.56
2017-02-28T07:49:35.991Z,80.95
2017-02-28T07:50:28.590Z,82.30
2017-02-28T07:53:28.272Z,80.41
2017-02-28T07:54:28.750Z,80.04
2017-02-28T07:55:35.910Z,79.93
2017-02-28T07:59:28.894Z,80.45
2017-02-28T08:00:33.604Z,79.55
2017-02-28T08:01:34.020Z,80.48
2017-02-28T08:02:28.744Z,81.06
2017-02-28T08:03:29.960Z,80.59
2017-02-28T08:04:33.384Z,80.65
2017-02-28T08:05:28.586Z,81.34
2017-02-28T08:06:28.736Z,80.68
2017-02-28T08:07:59.678Z,80.68
2017-02-28T08:08:32.195Z,80.09
2017-02-28T08:09:33.760Z,79.85
2017-02-28T08:10:49.298Z,80.60
2017-02-28T08:11:25.038Z,81.23
2017-02-28T08:12:33.284Z,80.92
2017-02-28T08:13:28.380Z,80.93
2017-02-28T08:14:37.374Z,80.28
2017-02-28T08:15:28.896Z,80.43
2017-02-28T08:16:53.225Z,80.31
2017-02-28T08:17:28.680Z,79.58
2017-02-28T08:18:23.103Z,80.46
2017-02-28T08:19:28.308Z,81.33
2017-02-28T08:20:26.138Z,80.23
2017-02-28T08:21:39.209Z,81.73
2017-02-28T08:22:39.767Z,82.52
2017-02-28T08:23:29.007Z,83.27
2017-02-28T08:24:27.040Z,82.00
2017-02-28T08:25:29.903Z,82.69
2017-02-28T08:26:28.060Z,82.94
2017-02-28T08:27:46.039Z,82.53
2017-02-28T08:28:28.609Z,81.91
2017-02-28T08:29:23.033Z,81.26
2017-02-28T08:30:17.760Z,81.26
2017-02-28T08:31:28.061Z,81.72
2017-02-28T08:32:37.410Z,80.09
2017-02-28T08:33:26.074Z,80.61
2017-02-28T08:34:28.439Z,80.48
2017-02-28T08:35:23.232Z,80.91
2017-02-28T08:36:33.581Z,81.17
2017-02-28T08:37:38.504Z,81.12
2017-02-28T08:38:23.163Z,80.32
2017-02-28T08:39:49.762Z,80.54
2017-02-28T08:40:44.610Z,81.08
2017-02-28T08:41:57.065Z,80.85
2017-02-28T08:42:31.266Z,80.73
2017-02-28T08:43:29.900Z,80.40
2017-02-28T08:44:23.263Z,80.79
2017-02-28T08:45:28.719Z,80.84
2017-02-28T08:46:58.065Z,80.60
2017-02-28T08:47:26.316Z,80.74
2017-02-28T08:48:29.944Z,81.25
2017-02-28T08:49:33.408Z,81.60
2017-02-28T08:50:28.552Z,81.60
2017-02-28T08:51:27.972Z,81.29
2017-02-28T08:52:29.627Z,80.71
2017-02-28T08:53:27.676Z,80.49
2017-02-28T08:54:29.860Z,80.82
2017-02-28T08:55:28.878Z,80.64
2017-02-28T08:56:32.822Z,80.86
2017-02-28T08:57:39.812Z,80.53
2017-02-28T08:58:34.344Z,80.81
2017-02-28T08:59:29.120Z,80.54
2017-02-28T09:00:24.697Z,80.51
2017-02-28T09:01:30.121Z,80.29
2017-02-28T09:02:29.582Z,80.95
2017-02-28T09:03:28.764Z,81.05
2017-02-28T09:04:37.452Z,81.22
2017-02-28T09:05:33.585Z,80.50
2017-02-28T09:06:28.624Z,80.58
2017-02-28T09:07:33.815Z,81.55
2017-02-28T09:08:28.852Z,80.68
2017-02-28T09:09:28.889Z,81.84
2017-02-28T09:10:27.947Z,81.35
2017-02-28T09:11:34.265Z,81.05
2017-02-28T09:12:33.285Z,80.78
2017-02-28T09:13:29.114Z,81.98
2017-02-28T09:14:34.310Z,80.64
2017-02-28T09:15:27.620Z,80.69
2017-02-28T09:16:33.274Z,81.02
2017-02-28T09:17:28.919Z,80.83
2017-02-28T09:18:33.575Z,80.89
2017-02-28T09:19:18.249Z,81.07
2017-02-28T09:20:30.237Z,81.01
2017-02-28T09:21:29.898Z,80.69
2017-02-28T09:22:30.031Z,81.06
2017-02-28T09:23:34.170Z,80.79
2017-02-28T09:24:28.391Z,81.46
2017-02-28T09:25:34.304Z,80.89
2017-02-28T09:26:24.097Z,80.71
2017-02-28T09:27:31.505Z,80.98
2017-02-28T09:28:29.285Z,80.83
2017-02-28T09:29:32.746Z,81.03
2017-02-28T09:30:29.480Z,81.23
2017-02-28T09:31:37.871Z,81.07
2017-02-28T09:32:34.326Z,80.96
2017-02-28T09:33:34.246Z,80.30
2017-02-28T09:34:22.873Z,79.79
2017-02-28T09:35:29.091Z,80.62
2017-02-28T09:36:38.755Z,80.65
2017-02-28T09:37:23.054Z,81.07
2017-02-28T09:38:30.051Z,80.55
2017-02-28T09:39:33.297Z,81.42
2017-02-28T09:40:22.967Z,81.71
2017-02-28T09:41:30.891Z,81.60
2017-02-28T09:42:29.079Z,81.08
2017-02-28T09:43:33.161Z,81.44
2017-02-28T09:44:28.959Z,80.50
2017-02-28T09:45:37.972Z,80.99
2017-02-28T09:46:34.003Z,81.06
2017-02-28T09:47:43.499Z,81.31
2017-02-28T09:48:28.877Z,80.42
2017-02-28T09:49:29.049Z,79.95
2017-02-28T09:50:28.640Z,80.66
2017-02-28T09:51:31.225Z,80.85
2017-02-28T09:52:22.893Z,80.69
2017-02-28T09:53:52.146Z,80.84
2017-02-28T09:54:50.633Z,80.86
2017-02-28T09:55:29.425Z,80.18
2017-02-28T09:56:38.467Z,81.52
2017-02-28T09:57:38.907Z,81.06
2017-02-28T09:58:34.270Z,80.87
2017-02-28T09:59:29.007Z,80.66
2017-02-28T10:00:26.169Z,80.01
2017-02-28T10:01:34.360Z,80.67
2017-02-28T10:02:29.563Z,80.96
2017-02-28T10:03:28.799Z,80.04
2017-02-28T10:04:38.750Z,79.62
2017-02-28T10:05:28.088Z,80.14
2017-02-28T10:06:28.935Z,81.07
2017-02-28T10:07:29.084Z,81.06
2017-02-28T10:08:23.413Z,79.84
2017-02-28T10:09:30.007Z,80.87
2017-02-28T10:10:24.575Z,80.51
2017-02-28T10:11:28.796Z,81.11
2017-02-28T10:12:28.232Z,80.49
2017-02-28T10:13:28.497Z,80.77
2017-02-28T10:14:24.983Z,79.93
2017-02-28T10:15:28.388Z,79.54
2017-02-28T10:16:28.643Z,80.09
2017-02-28T10:17:39.176Z,80.07
2017-02-28T10:18:32.228Z,80.66
2017-02-28T10:19:33.044Z,80.23
2017-02-28T10:20:28.585Z,80.74
2017-02-28T10:21:28.845Z,79.68
2017-02-28T10:22:34.218Z,78.82
2017-02-28T10:23:28.413Z,79.55
2017-02-28T10:24:30.696Z,80.57
2017-02-28T10:25:29.327Z,80.77
2017-02-28T10:26:33.497Z,80.76
2017-02-28T10:27:32.165Z,80.20
2017-02-28T10:28:33.244Z,79.77
2017-02-28T10:29:33.493Z,80.27
2017-02-28T10:30:28.428Z,79.20
2017-02-28T10:31:25.938Z,80.36
2017-02-28T10:32:28.130Z,80.15
2017-02-28T10:33:28.642Z,79.86
2017-02-28T10:34:28.858Z,80.64
2017-02-28T10:35:29.526Z,79.74
2017-02-28T10:36:28.735Z,80.76
2017-02-28T10:37:28.539Z,80.60
2017-02-28T10:38:28.134Z,80.84
2017-02-28T10:39:43.540Z,81.25
2017-02-28T10:40:33.105Z,80.81
2017-02-28T10:41:29.345Z,79.67
2017-02-28T10:42:25.313Z,79.41
2017-02-28T10:43:29.456Z,80.08
2017-02-28T10:44:38.898Z,80.16
2017-02-28T10:45:28.359Z,79.89
2017-02-28T10:46:28.550Z,79.73
2017-02-28T10:47:33.503Z,79.31
2017-02-28T10:48:27.740Z,79.39
2017-02-28T10:49:34.093Z,79.49
2017-02-28T10:50:28.889Z,79.17
2017-02-28T10:51:33.748Z,79.18
2017-02-28T10:52:33.379Z,79.14
2017-02-28T10:53:38.774Z,80.21
2017-02-28T10:54:20.182Z,79.85
2017-02-28T10:55:33.268Z,79.75
2017-02-28T10:56:28.497Z,79.21
2017-02-28T10:57:33.780Z,79.03
2017-02-28T10:58:28.268Z,79.39
2017-02-28T10:59:28.869Z,79.51
2017-02-28T11:00:29.040Z,79.60
2017-02-28T11:01:29.349Z,79.26
2017-02-28T11:02:40.093Z,79.61
2017-02-28T11:03:25.595Z,80.55
2017-02-28T11:04:28.764Z,80.04
2017-02-28T11:05:28.284Z,80.38
2017-02-28T11:06:28.475Z,79.73
2017-02-28T11:07:34.121Z,80.35
2017-02-28T11:08:33.297Z,80.26
2017-02-28T11:09:28.797Z,80.81
2017-02-28T11:10:31.361Z,79.53
2017-02-28T11:11:28.578Z,79.84
2017-02-28T11:12:31.706Z,79.95
2017-02-28T11:13:25.281Z,80.51
2017-02-28T11:14:33.961Z,80.28
2017-02-28T11:15:28.315Z,80.06
2017-02-28T11:16:43.309Z,80.45
2017-02-28T11:17:33.789Z,80.42
2017-02-28T11:18:31.199Z,80.59
2017-02-28T11:19:32.868Z,80.98
2017-02-28T11:20:28.144Z,81.13
2017-02-28T11:21:22.352Z,81.99
2017-02-28T11:22:29.467Z,80.61
2017-02-28T11:23:33.333Z,80.18
2017-02-28T11:24:29.519Z,79.82
2017-02-28T11:25:33.943Z,79.88
2017-02-28T11:26:33.254Z,79.58
2017-02-28T11:27:33.996Z,79.67
2017-02-28T11:28:33.885Z,79.21
2017-02-28T11:29:30.603Z,79.40
2017-02-28T11:30:28.693Z,80.65
2017-02-28T11:31:32.752Z,81.16
2017-02-28T11:32:33.773Z,81.09
2017-02-28T11:33:28.751Z,80.61
2017-02-28T11:34:34.385Z,81.48
2017-02-28T11:35:38.960Z,82.00
2017-02-28T11:36:24.163Z,81.96
2017-02-28T11:37:38.724Z,81.14
2017-02-28T11:38:38.145Z,81.87
2017-02-28T11:39:33.300Z,81.21
2017-02-28T11:40:29.009Z,80.32
2017-02-28T11:41:28.500Z,80.17
2017-02-28T11:42:28.634Z,80.18
2017-02-28T11:43:28.012Z,80.79
2017-02-28T11:44:28.311Z,81.13
2017-02-28T11:45:28.071Z,81.55
2017-02-28T11:46:24.952Z,81.52
2017-02-28T11:47:27.705Z,81.10
2017-02-28T11:48:39.773Z,81.60
2017-02-28T11:49:33.531Z,80.81
2017-02-28T11:50:25.182Z,80.67
2017-02-28T11:51:26.754Z,80.31
2017-02-28T11:52:25.145Z,79.32
2017-02-28T11:53:33.503Z,80.29
2017-02-28T11:54:37.529Z,79.80
2017-02-28T11:55:27.502Z,80.31
2017-02-28T11:56:28.394Z,81.30
2017-02-28T11:57:34.392Z,80.90
2017-02-28T11:58:28.646Z,80.51
2017-02-28T11:59:28.814Z,80.49
2017-02-28T12:00:26.156Z,81.60
2017-02-28T12:01:29.878Z,81.64
2017-02-28T12:02:38.739Z,81.23
2017-02-28T12:03:28.549Z,81.14
2017-02-28T12:04:25.161Z,81.34
2017-02-28T12:05:33.946Z,81.74
2017-02-28T12:06:43.238Z,82.26
2017-02-28T12:07:28.389Z,81.65
2017-02-28T12:08:33.453Z,81.07
2017-02-28T12:09:37.847Z,82.49
2017-02-28T12:10:28.674Z,82.97
2017-02-28T12:11:29.031Z,83.14
2017-02-28T12:12:28.195Z,82.22
2017-02-28T12:13:33.739Z,81.90
2017-02-28T12:14:32.296Z,81.39
2017-02-28T12:15:34.247Z,80.31
2017-02-28T12:16:28.519Z,80.83
2017-02-28T12:17:29.227Z,80.77
2017-02-28T12:18:28.550Z,81.31
2017-02-28T12:19:28.264Z,80.67
2017-02-28T12:20:33.268Z,82.26
2017-02-28T12:21:28.488Z,82.35
2017-02-28T12:22:28.749Z,82.52
2017-02-28T12:23:33.749Z,82.13
2017-02-28T12:24:33.550Z,81.87
2017-02-28T12:25:22.320Z,81.61
2017-02-28T12:26:31.186Z,81.16
2017-02-28T12:27:34.062Z,81.50
2017-02-28T12:28:28.137Z,81.97
2017-02-28T12:29:33.781Z,81.27
2017-02-28T12:30:23.931Z,82.56
2017-02-28T12:31:36.222Z,82.99
2017-02-28T12:32:32.380Z,82.86
2017-02-28T12:33:29.306Z,82.64
2017-02-28T12:34:29.014Z,81.88
2017-02-28T12:35:29.495Z,82.26
2017-02-28T12:36:39.378Z,82.79
2017-02-28T12:37:29.559Z,82.32
2017-02-28T12:38:29.705Z,82.75
2017-02-28T12:39:29.337Z,83.78
2017-02-28T12:40:28.357Z,83.52
2017-02-28T12:41:33.941Z,83.63
2017-02-28T12:42:38.384Z,82.90
2017-02-28T12:43:34.097Z,82.87
2017-02-28T12:44:38.160Z,81.99
2017-02-28T12:45:28.111Z,81.99
2017-02-28T12:46:28.235Z,82.47
2017-02-28T12:47:28.466Z,81.83
2017-02-28T12:48:29.008Z,81.65
2017-02-28T12:49:33.170Z,82.96
2017-02-28T12:50:18.595Z,82.34
2017-02-28T12:51:49.545Z,82.21
2017-02-28T12:52:33.978Z,82.22
2017-02-28T12:53:28.902Z,82.23
2017-02-28T12:54:30.772Z,82.91
2017-02-28T12:55:34.751Z,81.49
2017-02-28T12:56:28.931Z,81.68
2017-02-28T12:57:29.286Z,83.75
2017-02-28T12:58:28.276Z,83.39
2017-02-28T12:59:26.053Z,83.38
2017-02-28T13:00:43.566Z,83.21
2017-02-28T13:01:22.411Z,82.86
2017-02-28T13:02:34.090Z,82.74
2017-02-28T13:03:28.276Z,83.19
2017-02-28T13:04:25.164Z,82.90
2017-02-28T13:05:34.413Z,82.73
2017-02-28T13:06:29.530Z,83.65
2017-02-28T13:07:29.703Z,83.01
2017-02-28T13:08:27.817Z,82.63
2017-02-28T13:09:26.552Z,83.36
2017-02-28T13:10:29.282Z,83.44
2017-02-28T13:11:33.256Z,82.81
2017-02-28T13:12:29.551Z,83.25
2017-02-28T13:13:28.097Z,83.30
2017-02-28T13:14:33.888Z,83.05
2017-02-28T13:15:29.151Z,83.96
2017-02-28T13:16:28.095Z,84.58
2017-02-28T13:17:28.349Z,84.07
2017-02-28T13:18:28.246Z,83.36
2017-02-28T13:19:31.566Z,83.27